Time;durP1;ratioP1;P1;durP2;ratioP2;P2;SDS_P1;SDS_P2;PMS_P1;PMS_P2;Temp;Humidity;BMP_temperature;BMP_pressure;BME280_temperature;BME280_humidity;BME280_pressure;Samples;Min_cycle;Max_cycle;Signal;HPM_P1;HPM_P2
2021/05/13 00:01:45;;;;;;;3.00;2.80;;;17.20;99.90;;;17.69;51.67;100540.00;4879903;28;98078;-47
2021/05/13 00:04:11;;;;;;;2.83;2.60;;;17.20;99.90;;;17.71;51.65;100530.09;4863525;28;100809;-46
2021/05/13 00:06:37;;;;;;;5.10;4.70;;;17.30;99.90;;;17.74;51.48;100529.88;4877933;28;99106;-45
2021/05/13 00:09:09;;;;;;;10.07;9.27;;;17.30;99.90;;;17.73;51.79;100539.69;4853514;28;99781;-43
2021/05/13 00:11:37;;;;;;;10.10;9.20;;;17.30;99.90;;;17.69;51.86;100537.34;4876020;28;99224;-46
2021/05/13 00:14:06;;;;;;;10.30;9.40;;;17.10;99.90;;;17.66;52.01;100535.72;4875668;28;99525;-45
2021/05/13 00:16:34;;;;;;;10.10;9.10;;;17.10;99.90;;;17.66;51.87;100541.03;4881148;28;99336;-47
2021/05/13 00:19:07;;;;;;;3.17;2.93;;;17.10;99.90;;;17.68;51.99;100532.94;4876879;28;98034;-44
2021/05/13 00:21:34;;;;;;;8.67;7.87;;;17.10;99.90;;;17.67;51.58;100533.91;4875867;28;100016;-45
2021/05/13 00:24:00;;;;;;;2.93;2.73;;;17.20;99.90;;;17.68;51.90;100531.16;4887217;28;98781;-51
2021/05/13 00:26:39;;;;;;;9.50;8.60;;;17.20;99.90;;;17.71;51.56;100522.09;4877351;28;105162;-44
2021/05/13 00:29:11;;;;;;;4.30;3.90;;;17.30;99.90;;;17.67;51.68;100518.75;4874043;28;98670;-47
2021/05/13 00:31:38;;;;;;;7.47;6.77;;;17.20;99.90;;;17.62;51.79;100517.31;4893063;28;98039;-43
2021/05/13 00:34:05;;;;;;;10.10;9.20;;;17.00;99.90;;;17.52;52.14;100509.97;4876152;28;102557;-54
2021/05/13 00:36:36;;;;;;;2.50;2.10;;;16.80;99.90;;;17.47;52.05;100514.72;4900950;28;98235;-56
2021/05/13 00:39:05;;;;;;;3.10;2.83;;;16.80;99.90;;;17.50;52.17;100509.22;4870758;28;98836;-51
2021/05/13 00:41:31;;;;;;;9.33;7.50;;;17.00;99.90;;;17.48;52.08;100513.75;4877828;28;97009;-45
2021/05/13 00:43:57;;;;;;;10.07;9.13;;;16.90;99.90;;;17.42;52.03;100519.50;4882246;28;101194;-56
2021/05/13 00:46:23;;;;;;;5.43;4.93;;;16.80;99.90;;;17.35;52.31;100518.19;4878883;28;98690;-54
2021/05/13 00:48:50;;;;;;;10.07;9.10;;;16.60;99.90;;;17.32;52.50;100529.06;4884953;28;98579;-54
2021/05/13 00:51:16;;;;;;;3.97;3.67;;;16.60;99.90;;;17.30;52.64;100528.31;4878444;28;98059;-54
2021/05/13 00:53:47;;;;;;;2.43;2.23;;;16.60;99.90;;;17.31;52.71;100527.34;4879243;28;98256;-52
2021/05/13 00:56:13;;;;;;;2.30;2.10;;;16.70;99.90;;;17.33;52.49;100525.44;4874633;28;100571;-51
2021/05/13 00:58:43;;;;;;;1.97;1.87;;;16.80;99.90;;;17.41;52.24;100517.81;4865901;28;97952;-55
2021/05/13 01:01:12;;;;;;;1.90;1.80;;;16.90;99.90;;;17.61;51.74;100523.63;4888325;28;97431;-58
2021/05/13 01:03:38;;;;;;;3.23;3.00;;;17.30;99.70;;;17.73;51.53;100525.50;4891418;28;101205;-54
2021/05/13 01:06:09;;;;;;;2.70;2.50;;;17.50;99.00;;;17.77;51.50;100513.66;4876079;28;98738;-47
2021/05/13 01:08:35;;;;;;;8.60;7.80;;;17.50;98.90;;;17.76;51.39;100512.81;4883779;28;98555;-50
2021/05/13 01:11:01;;;;;;;2.73;2.17;;;17.40;98.40;;;17.72;51.59;100515.78;4870267;28;98231;-53
2021/05/13 01:13:28;;;;;;;3.97;3.37;;;17.20;99.80;;;17.71;51.39;100503.41;4875699;28;101756;-56
2021/05/13 01:16:10;;;;;;;2.27;2.10;;;17.20;99.90;;;17.73;51.64;100512.16;4890311;28;98379;-47
2021/05/13 01:18:36;;;;;;;1.87;1.77;;;17.30;99.60;;;17.78;51.44;100504.69;4890618;28;100545;-55
2021/05/13 01:21:03;;;;;;;2.40;2.20;;;17.40;99.60;;;17.86;51.06;100507.72;4871404;28;97444;-55
2021/05/13 01:23:29;;;;;;;3.63;3.33;;;17.60;99.10;;;17.94;50.77;100505.38;4892522;28;98122;-49
2021/05/13 01:25:56;;;;;;;4.47;4.07;;;17.70;98.70;;;17.92;50.93;100496.59;4894991;28;100413;-55
2021/05/13 01:28:28;;;;;;;4.93;4.53;;;17.60;97.60;;;17.85;51.14;100495.31;4875670;28;99008;-51
2021/05/13 01:30:56;;;;;;;1.93;1.73;;;17.40;98.80;;;17.79;51.17;100501.06;4875997;28;98947;-52
2021/05/13 01:33:25;;;;;;;1.87;1.77;;;17.30;99.60;;;17.86;50.87;100501.50;4885881;28;102114;-56
2021/05/13 01:35:52;;;;;;;2.17;1.97;;;17.50;99.20;;;17.94;50.81;100499.16;4881894;28;99848;-54
2021/05/13 01:38:21;;;;;;;4.80;4.27;;;17.70;98.60;;;18.00;50.61;100494.28;4869265;28;97896;-49
2021/05/13 01:40:57;;;;;;;8.33;7.63;;;17.80;97.90;;;17.97;50.38;100501.63;4876313;28;99461;-50
2021/05/13 01:43:26;;;;;;;7.73;6.90;;;17.60;97.50;;;17.88;50.93;100496.94;4872319;28;98438;-52
2021/05/13 01:45:52;;;;;;;5.57;5.07;;;17.40;98.50;;;17.83;50.96;100491.91;4893082;28;99018;-51
2021/05/13 01:48:18;;;;;;;4.40;4.00;;;17.40;99.00;;;17.77;51.05;100490.50;4872888;28;97623;-57
2021/05/13 01:50:47;;;;;;;7.50;6.63;;;17.30;99.10;;;17.73;51.11;100494.34;4876184;28;98621;-56
2021/05/13 01:53:14;;;;;;;5.83;5.33;;;17.20;98.90;;;17.67;51.31;100492.06;4873423;28;98064;-47
2021/05/13 01:55:40;;;;;;;3.63;3.33;;;17.10;99.00;;;17.60;51.71;100487.25;4880368;28;97484;-46
2021/05/13 01:58:06;;;;;;;1.93;1.83;;;16.90;99.60;;;17.57;51.62;100487.44;4890834;28;98263;-55
2021/05/13 02:00:35;;;;;;;2.27;2.17;;;16.90;99.90;;;17.58;51.70;100486.50;4874473;28;97558;-53
2021/05/13 02:03:01;;;;;;;2.07;1.87;;;17.00;99.90;;;17.63;51.62;100468.34;4873801;28;100803;-55
2021/05/13 02:05:27;;;;;;;3.33;2.27;;;17.20;99.80;;;17.67;51.25;100481.41;4878528;28;102041;-50
2021/05/13 02:07:53;;;;;;;3.07;2.87;;;17.30;99.40;;;17.74;51.36;100476.53;4877363;28;97810;-58
2021/05/13 02:10:19;;;;;;;4.90;3.90;;;17.40;98.00;;;17.73;51.41;100466.81;4876563;28;98651;-55
2021/05/13 02:12:46;;;;;;;1.70;1.60;;;17.30;98.20;;;17.73;51.15;100474.81;4876059;28;100169;-56
2021/05/13 02:15:14;;;;;;;1.90;1.80;;;17.40;99.40;;;17.79;51.30;100466.38;4879794;28;98855;-51
2021/05/13 02:17:45;;;;;;;2.17;1.80;;;17.50;98.80;;;17.82;50.90;100468.88;4874941;28;98700;-48
2021/05/13 02:20:15;;;;;;;1.70;1.60;;;17.50;98.60;;;17.86;51.01;100459.69;4878163;28;98921;-53
2021/05/13 02:22:41;;;;;;;5.63;5.13;;;17.70;98.40;;;17.84;50.82;100450.94;4897146;28;97630;-49
2021/05/13 02:25:09;;;;;;;6.37;5.80;;;17.60;97.20;;;17.77;50.93;100450.47;4876169;28;99412;-53
2021/05/13 02:27:36;;;;;;;1.73;1.63;;;17.40;98.00;;;17.73;50.92;100454.31;4879722;28;97335;-53
2021/05/13 02:30:05;;;;;;;1.90;1.80;;;17.30;99.30;;;17.75;51.06;100454.22;4873654;28;100042;-50
2021/05/13 02:32:31;;;;;;;1.93;1.47;;;17.40;99.10;;;17.78;50.89;100451.34;4896969;28;99832;-47
2021/05/13 02:34:56;;;;;;;3.30;2.90;;;17.50;98.30;;;17.73;51.19;100448.13;4895147;28;103990;-46
2021/05/13 02:37:22;;;;;;;3.77;2.87;;;17.30;97.60;;;17.68;51.21;100444.91;4869338;28;97718;-55
2021/05/13 02:39:49;;;;;;;3.47;3.20;;;17.10;99.40;;;17.65;51.29;100439.75;4878784;28;107118;-47
2021/05/13 02:42:16;;;;;;;4.93;4.43;;;17.10;98.20;;;17.59;51.61;100440.19;4886319;28;97386;-54
2021/05/13 02:44:43;;;;;;;2.20;1.90;;;17.00;98.40;;;17.53;51.51;100437.00;4878353;28;99590;-49
2021/05/13 02:47:09;;;;;;;1.70;1.60;;;16.90;99.90;;;17.61;51.61;100432.94;4869279;28;99225;-49
2021/05/13 02:49:36;;;;;;;1.90;1.70;;;17.20;99.50;;;17.70;51.33;100435.03;4878259;28;98440;-53
2021/05/13 02:52:03;;;;;;;2.07;1.43;;;17.40;98.90;;;17.78;51.25;100436.19;4874805;28;99492;-54
2021/05/13 02:54:29;;;;;;;1.63;1.53;;;17.50;98.40;;;17.82;51.08;100436.84;4876318;28;103489;-48
2021/05/13 02:56:55;;;;;;;1.60;1.50;;;17.60;98.40;;;17.90;50.90;100438.97;4893037;28;97749;-52
2021/05/13 02:59:21;;;;;;;2.07;1.70;;;17.70;98.20;;;17.99;50.58;100439.19;4872433;28;109244;-54
2021/05/13 03:01:47;;;;;;;3.03;2.70;;;17.90;97.90;;;17.97;50.33;100446.47;4894998;28;97768;-44
2021/05/13 03:04:13;;;;;;;1.70;1.60;;;17.80;96.60;;;17.96;50.63;100444.75;4895735;28;97244;-48
2021/05/13 03:06:39;;;;;;;1.70;1.60;;;17.70;98.10;;;17.97;50.53;100446.47;4890982;28;97687;-47
2021/05/13 03:09:06;;;;;;;1.70;1.60;;;17.80;97.80;;;18.00;50.45;100451.56;4876164;28;97263;-50
2021/05/13 03:11:32;;;;;;;2.00;1.80;;;17.80;97.50;;;18.05;50.31;100454.75;4907955;28;97373;-44
2021/05/13 03:14:01;;;;;;;1.80;1.70;;;17.90;97.70;;;18.12;49.84;100449.88;4914306;28;96902;-48
2021/05/13 03:16:27;;;;;;;1.63;1.50;;;18.00;97.40;;;18.19;49.80;100450.28;4885319;28;98014;-51
2021/05/13 03:18:55;;;;;;;1.73;1.63;;;18.10;97.10;;;18.18;49.68;100453.91;4896894;28;97422;-51
2021/05/13 03:21:39;;;;;;;1.80;1.70;;;18.10;96.70;;;18.13;49.72;100447.09;4886007;28;99262;-55
2021/05/13 03:29:12;;;;;;;2.03;1.93;;;17.30;96.40;;;17.73;50.75;100442.81;4910179;28;97385;-50
2021/05/13 03:31:39;;;;;;;3.13;2.93;;;17.10;98.10;;;17.65;51.11;100445.09;4903126;28;97268;-52
2021/05/13 03:34:04;;;;;;;7.90;6.93;;;17.10;98.20;;;17.53;50.96;100442.34;4890145;28;99221;-47
2021/05/13 03:36:32;;;;;;;2.30;1.90;;;16.80;97.50;;;17.42;51.63;100444.00;4889127;28;97217;-52
2021/05/13 03:39:05;;;;;;;2.20;2.00;;;16.60;99.20;;;17.42;51.93;100439.53;4897203;28;97275;-48
2021/05/13 03:41:32;;;;;;;2.30;2.10;;;16.80;99.90;;;17.43;51.76;100433.25;4902635;28;101882;-51
2021/05/13 03:43:58;;;;;;;3.13;2.83;;;17.00;99.10;;;17.42;51.67;100426.19;4898266;28;98173;-44
2021/05/13 03:46:24;;;;;;;1.90;1.60;;;16.90;98.00;;;17.45;51.51;100438.47;4888734;28;97306;-45
2021/05/13 03:48:50;;;;;;;2.83;2.63;;;16.90;99.50;;;17.48;51.55;100428.44;4915095;28;97207;-44
2021/05/13 03:51:16;;;;;;;5.40;4.90;;;17.10;98.30;;;17.48;51.67;100441.75;4892332;28;99791;-45
2021/05/13 03:53:43;;;;;;;2.20;1.97;;;17.00;98.50;;;17.52;51.53;100440.63;4897977;28;98462;-51
2021/05/13 03:56:10;;;;;;;1.90;1.80;;;17.10;99.20;;;17.59;51.42;100440.19;4893730;28;98207;-54
2021/05/13 03:58:45;;;;;;;3.00;2.70;;;17.20;98.90;;;17.65;51.19;100445.09;4895207;28;97267;-52
2021/05/13 04:01:15;;;;;;;3.00;2.43;;;17.30;97.00;;;17.63;51.07;100452.34;4881217;28;98735;-48
2021/05/13 04:03:40;;;;;;;2.93;2.70;;;17.30;98.60;;;17.65;51.02;100450.44;4892817;28;98322;-52
2021/05/13 04:06:06;;;;;;;2.23;2.03;;;17.30;98.20;;;17.68;51.09;100444.91;4898558;28;98805;-46
2021/05/13 04:08:32;;;;;;;3.77;3.47;;;17.30;98.30;;;17.71;50.78;100450.06;4911551;28;97575;-44
2021/05/13 04:10:58;;;;;;;2.20;2.00;;;17.40;98.10;;;17.73;50.79;100437.47;4897578;28;97135;-52
2021/05/13 04:13:24;;;;;;;4.03;3.63;;;17.50;98.30;;;17.74;50.93;100434.69;4892991;28;97378;-49
2021/05/13 04:15:52;;;;;;;2.37;2.17;;;17.50;97.30;;;17.75;50.78;100430.22;4891433;28;97052;-50
2021/05/13 04:18:18;;;;;;;1.53;1.43;;;17.50;97.80;;;17.79;50.89;100426.38;4884699;28;101216;-47
2021/05/13 04:20:44;;;;;;;3.03;1.60;;;17.60;98.20;;;17.88;50.36;100430.22;4894227;28;100286;-44
2021/05/13 04:23:10;;;;;;;1.80;1.70;;;17.70;97.80;;;17.95;50.25;100426.19;4890405;28;99773;-52
2021/05/13 04:25:37;;;;;;;1.93;1.70;;;17.80;97.60;;;17.98;50.25;100420.63;4894925;28;102875;-44
2021/05/13 04:28:04;;;;;;;2.03;1.83;;;17.90;97.40;;;17.98;50.28;100410.81;4908008;28;97047;-50
2021/05/13 04:30:30;;;;;;;1.60;1.50;;;17.90;96.90;;;18.04;50.19;100410.34;4909318;28;98150;-50
2021/05/13 04:32:56;;;;;;;1.83;1.73;;;17.90;97.30;;;18.10;49.82;100412.63;4892041;28;97752;-43
2021/05/13 04:35:22;;;;;;;1.70;1.60;;;18.00;97.00;;;18.21;49.38;100416.31;4894031;28;96991;-49
2021/05/13 04:37:48;;;;;;;2.00;1.80;;;18.20;96.90;;;18.26;49.67;100409.72;4896936;28;97613;-51
2021/05/13 04:40:14;;;;;;;2.30;2.10;;;18.20;96.70;;;18.29;49.29;100411.28;4888826;28;98358;-49
2021/05/13 04:42:40;;;;;;;3.90;3.03;;;18.30;95.60;;;18.25;49.26;100412.50;4894179;28;97386;-50
2021/05/13 04:45:07;;;;;;;6.73;5.17;;;18.20;94.80;;;18.10;49.66;100403.75;4888024;28;97142;-53
2021/05/13 04:50:10;;;;;;;4.30;3.10;;;17.40;96.40;;;17.79;50.41;100413.03;4907256;28;97420;-52
2021/05/13 04:52:38;;;;;;;7.13;6.03;;;17.10;97.10;;;17.62;50.67;100415.97;4897486;28;99791;-45
2021/05/13 04:55:06;;;;;;;7.27;6.57;;;16.80;97.70;;;17.43;50.95;100417.25;4887442;28;101049;-45
2021/05/13 04:57:35;;;;;;;9.03;8.23;;;16.50;98.20;;;17.31;51.71;100415.41;4896295;28;98191;-54
2021/05/13 05:00:02;;;;;;;5.63;5.13;;;16.40;99.20;;;17.18;51.89;100411.84;4888711;28;99078;-53
2021/05/13 05:02:29;;;;;;;8.27;7.20;;;16.20;99.60;;;17.10;52.16;100411.53;4904290;28;101221;-43
2021/05/13 05:04:55;;;;;;;5.53;5.13;;;16.20;99.90;;;16.99;52.24;100404.22;4889720;28;98652;-51
2021/05/13 05:07:21;;;;;;;8.53;7.73;;;16.00;99.80;;;16.87;52.54;100405.88;4910025;28;99089;-44
2021/05/13 05:09:47;;;;;;;6.77;6.17;;;15.80;99.90;;;16.81;52.91;100398.31;4906169;28;117406;-47
2021/05/13 05:12:14;;;;;;;8.03;7.23;;;15.80;99.90;;;16.74;52.95;100399.66;4892753;28;99584;-48
2021/05/13 05:14:41;;;;;;;3.50;3.30;;;15.70;99.90;;;16.71;53.25;100397.19;4894599;28;97016;-50
2021/05/13 05:17:08;;;;;;;2.10;2.00;;;15.70;99.90;;;16.72;53.55;100380.25;4891161;28;97548;-47
2021/05/13 05:19:34;;;;;;;2.60;2.10;;;15.90;99.90;;;16.79;53.06;100386.91;4897167;28;97373;-46
2021/05/13 05:22:01;;;;;;;2.00;1.90;;;16.20;99.90;;;16.91;52.87;100375.41;4907579;28;97983;-52
2021/05/13 05:24:27;;;;;;;2.27;2.07;;;16.40;99.90;;;17.06;52.43;100383.34;4868091;28;98732;-46
2021/05/13 05:26:52;;;;;;;1.87;1.70;;;16.70;99.90;;;17.22;52.12;100381.38;4905929;28;96900;-49
2021/05/13 05:29:18;;;;;;;1.80;1.70;;;16.90;99.70;;;17.42;51.67;100380.88;4898541;28;100297;-51
2021/05/13 05:31:44;;;;;;;1.93;1.83;;;17.20;99.00;;;17.65;51.00;100386.41;4881612;28;98755;-46
2021/05/13 05:34:10;;;;;;;1.63;1.53;;;17.50;98.30;;;17.86;50.45;100373.44;4896542;28;97420;-48
2021/05/13 05:36:36;;;;;;;1.90;1.80;;;17.80;97.80;;;18.03;50.11;100378.44;4912519;28;102941;-48
2021/05/13 05:39:03;;;;;;;2.00;1.60;;;18.00;97.30;;;18.18;49.70;100373.81;4912181;28;97143;-53
2021/05/13 05:41:29;;;;;;;1.60;1.47;;;18.20;96.90;;;18.28;49.29;100372.22;4906472;28;98837;-50
2021/05/13 05:43:54;;;;;;;1.80;1.70;;;18.30;96.60;;;18.33;49.04;100378.06;4919230;28;97846;-49
2021/05/13 05:46:20;;;;;;;2.10;2.00;;;18.40;96.40;;;18.37;49.10;100376.88;4907714;28;97247;-48
2021/05/13 05:48:46;;;;;;;1.77;1.60;;;18.40;95.80;;;18.39;49.04;100378.50;4914832;28;100085;-50
2021/05/13 05:51:12;;;;;;;1.80;1.70;;;18.40;96.30;;;18.45;48.87;100377.19;4900054;28;106161;-50
2021/05/13 05:53:38;;;;;;;1.70;1.60;;;18.50;95.90;;;18.43;48.97;100379.97;4881232;28;97556;-43
2021/05/13 05:56:04;;;;;;;1.73;1.47;;;18.40;96.30;;;18.48;48.92;100384.09;4906461;28;97731;-52
2021/05/13 05:58:30;;;;;;;1.40;1.30;;;18.50;96.20;;;18.52;48.80;100378.47;4894792;28;97973;-47
2021/05/13 06:00:55;;;;;;;1.70;1.60;;;18.50;96.10;;;18.51;48.69;100382.06;4894924;28;111235;-51
2021/05/13 06:03:22;;;;;;;2.13;1.93;;;18.50;96.20;;;18.43;48.97;100382.63;4889985;28;97522;-51
2021/05/13 06:05:49;;;;;;;1.70;1.60;;;18.30;97.00;;;18.39;49.04;100377.63;4893667;28;96891;-49
2021/05/13 06:08:15;;;;;;;2.10;1.90;;;18.20;96.90;;;18.47;48.79;100377.91;4889824;28;100104;-49
2021/05/13 06:10:41;;;;;;;2.97;2.67;;;18.30;96.50;;;18.50;48.91;100375.00;4909433;28;98993;-44
2021/05/13 06:13:07;;;;;;;9.50;8.70;;;18.40;96.10;;;18.46;48.76;100373.53;4888102;28;101026;-49
2021/05/13 06:15:35;;;;;;;12.57;11.43;;;18.30;96.40;;;18.10;49.78;100372.56;4893621;28;97387;-51
2021/05/13 06:18:01;;;;;;;2.30;2.10;;;17.80;97.50;;;18.07;49.83;100370.09;4894764;28;101640;-47
2021/05/13 06:20:29;;;;;;;2.20;2.00;;;17.60;98.20;;;18.05;49.91;100366.69;4888086;28;103931;-49
2021/05/13 06:22:56;;;;;;;10.83;9.87;;;17.60;98.40;;;17.96;50.08;100369.19;4891601;28;98775;-46
2021/05/13 06:25:24;;;;;;;13.33;11.93;;;17.50;98.60;;;17.68;50.70;100370.22;4896239;28;98375;-54
2021/05/13 06:27:51;;;;;;;12.67;11.47;;;17.10;98.80;;;17.41;51.96;100370.31;4893544;28;98969;-50
2021/05/13 06:30:19;;;;;;;13.97;12.77;;;16.80;99.70;;;17.22;52.29;100360.91;4879109;28;98364;-52
2021/05/13 06:32:46;;;;;;;15.33;13.83;;;16.60;99.90;;;17.14;52.90;100367.72;4892148;28;97147;-52
2021/05/13 06:35:14;;;;;;;17.87;16.03;;;16.50;99.90;;;17.02;53.33;100366.72;4878366;28;98543;-50
2021/05/13 06:37:40;;;;;;;3.47;3.17;;;16.40;99.90;;;17.04;52.88;100369.28;4880714;28;97888;-56
2021/05/13 06:40:08;;;;;;;3.00;2.70;;;16.40;99.90;;;17.29;52.34;100368.47;4904515;28;100811;-46
2021/05/13 06:42:35;;;;;;;16.93;15.43;;;16.90;99.80;;;17.15;55.12;100362.28;4912795;28;96927;-49
2021/05/13 06:45:01;;;;;;;9.47;8.53;;;16.80;99.90;;;17.11;52.93;100355.44;4891924;28;97253;-47
2021/05/13 06:47:27;;;;;;;10.30;9.20;;;16.70;99.90;;;17.21;53.46;100363.66;4909780;28;101007;-54
2021/05/13 06:49:53;;;;;;;2.70;2.50;;;16.80;99.90;;;17.43;51.69;100365.72;4894729;28;99185;-53
2021/05/13 06:52:19;;;;;;;2.20;2.00;;;17.10;99.40;;;17.67;51.42;100358.72;4892268;28;97523;-49
2021/05/13 06:54:45;;;;;;;4.07;3.67;;;17.50;98.50;;;17.82;50.59;100357.66;4911952;28;97403;-50
2021/05/13 06:57:11;;;;;;;2.07;1.97;;;17.80;98.00;;;18.01;49.97;100367.03;4890624;28;98754;-51
2021/05/13 06:59:39;;;;;;;8.60;7.70;;;18.00;97.30;;;17.84;51.39;100370.91;4906803;28;97152;-52
2021/05/13 07:02:05;;;;;;;2.20;2.00;;;17.70;98.70;;;17.87;50.84;100370.66;4892438;28;97564;-47
2021/05/13 07:04:31;;;;;;;7.70;7.00;;;17.60;98.50;;;17.88;51.79;100371.53;4894018;28;99208;-48
2021/05/13 07:06:58;;;;;;;2.20;2.00;;;17.70;99.00;;;18.05;50.13;100374.69;4915606;28;100330;-47
2021/05/13 07:09:24;;;;;;;2.30;2.10;;;17.90;97.50;;;18.17;49.89;100366.78;4886060;28;97007;-47
2021/05/13 07:11:50;;;;;;;8.07;7.37;;;18.10;97.20;;;18.04;52.32;100367.66;4912259;28;98252;-49
2021/05/13 07:14:16;;;;;;;2.13;2.03;;;18.00;99.00;;;18.22;49.59;100359.28;4888985;28;107725;-49
2021/05/13 07:16:42;;;;;;;3.00;2.23;;;18.10;97.20;;;18.32;49.38;100360.34;4896175;28;100510;-52
2021/05/13 07:19:08;;;;;;;1.80;1.70;;;18.30;97.10;;;18.40;49.10;100357.97;4892839;28;96826;-45
2021/05/13 07:21:34;;;;;;;11.40;9.60;;;18.40;96.40;;;18.33;50.68;100356.69;4894175;28;100047;-50
2021/05/13 07:24:01;;;;;;;1.77;1.67;;;18.30;99.00;;;18.38;49.25;100349.22;4896582;28;97696;-49
2021/05/13 07:26:27;;;;;;;2.30;2.10;;;18.30;96.80;;;18.49;48.92;100351.09;4905398;28;103077;-50
2021/05/13 07:28:53;;;;;;;1.90;1.80;;;18.50;96.40;;;18.56;48.78;100353.22;4899680;28;98662;-50
2021/05/13 07:31:19;;;;;;;1.93;1.70;;;18.60;96.10;;;18.57;48.66;100354.91;4903469;28;97605;-55
2021/05/13 07:33:45;;;;;;;8.10;7.30;;;18.60;96.30;;;18.54;50.40;100360.50;4911379;28;97575;-48
2021/05/13 07:36:11;;;;;;;4.57;4.17;;;18.50;98.20;;;18.34;49.57;100353.06;4897934;28;97500;-49
2021/05/13 07:38:38;;;;;;;3.50;2.93;;;18.20;97.80;;;18.35;49.34;100352.09;4894679;28;97787;-48
2021/05/13 07:41:06;;;;;;;8.60;7.50;;;18.10;97.30;;;18.21;52.32;100352.25;4886996;28;97024;-50
2021/05/13 07:43:34;;;;;;;9.63;8.63;;;18.00;99.60;;;18.10;52.04;100347.72;4916675;28;97383;-44
2021/05/13 07:46:01;;;;;;;3.53;3.20;;;17.80;99.50;;;18.02;50.42;100348.25;4913086;28;97604;-47
2021/05/13 07:48:28;;;;;;;1.83;1.67;;;17.60;99.50;;;18.06;50.26;100341.72;4911707;28;101752;-51
2021/05/13 07:50:55;;;;;;;4.70;2.63;;;17.70;98.50;;;18.19;49.75;100340.84;4897033;28;97523;-49
2021/05/13 07:53:21;;;;;;;6.20;5.70;;;18.00;97.50;;;18.23;50.02;100334.31;4896228;28;97428;-49
2021/05/13 07:55:46;;;;;;;1.90;1.70;;;18.10;98.20;;;18.30;49.66;100340.91;4897726;28;98780;-49
2021/05/13 07:58:12;;;;;;;1.70;1.60;;;18.10;97.20;;;18.43;49.09;100344.41;4902975;28;97391;-48
2021/05/13 08:00:39;;;;;;;2.17;2.03;;;18.30;96.60;;;18.53;49.19;100342.75;4896943;28;97219;-49
2021/05/13 08:03:05;;;;;;;4.57;4.10;;;18.50;96.60;;;18.55;49.21;100346.19;4903836;28;97146;-51
2021/05/13 08:05:31;;;;;;;5.20;4.70;;;18.50;97.80;;;18.32;50.34;100333.66;4897449;28;99961;-53
2021/05/13 08:07:57;;;;;;;3.73;3.37;;;18.20;97.20;;;18.26;49.53;100334.09;4912527;28;98385;-50
2021/05/13 08:10:23;;;;;;;5.30;4.87;;;18.00;98.50;;;18.21;51.00;100336.22;4910275;28;97523;-50
2021/05/13 08:12:49;;;;;;;5.23;4.30;;;17.90;99.00;;;17.94;49.54;100329.28;4898208;28;97406;-54
2021/05/13 08:15:15;;;;;;;2.30;2.10;;;17.60;97.60;;;18.06;50.14;100327.50;4906310;28;98943;-49
2021/05/13 08:17:43;;;;;;;2.03;1.90;;;17.70;98.10;;;18.17;49.86;100329.41;4893791;28;100215;-45
2021/05/13 08:20:12;;;;;;;3.90;3.13;;;18.00;97.40;;;18.29;49.57;100329.38;4892966;28;97353;-51
2021/05/13 08:22:40;;;;;;;5.87;5.27;;;18.20;96.90;;;18.14;49.42;100331.34;4896164;28;98738;-45
2021/05/13 08:25:08;;;;;;;2.30;2.10;;;18.10;96.80;;;18.25;49.35;100325.25;4909767;28;100628;-47
2021/05/13 08:27:35;;;;;;;2.03;1.83;;;18.10;96.90;;;18.36;49.23;100329.78;4895644;28;98552;-44
2021/05/13 08:30:04;;;;;;;1.63;1.53;;;18.30;96.70;;;18.48;48.94;100323.53;4896200;28;97377;-50
2021/05/13 08:32:30;;;;;;;1.60;1.50;;;18.50;96.20;;;18.59;48.83;100318.25;4891674;28;98876;-48
2021/05/13 08:34:56;;;;;;;2.03;1.83;;;18.70;95.80;;;18.68;48.71;100328.31;4895837;28;97943;-52
2021/05/13 08:37:22;;;;;;;1.70;1.60;;;18.80;95.50;;;18.78;48.21;100332.94;4896371;28;97439;-56
2021/05/13 08:39:49;;;;;;;5.13;3.93;;;18.90;95.30;;;18.84;49.41;100327.16;4897957;28;97462;-48
2021/05/13 08:42:15;;;;;;;6.97;4.40;;;19.00;95.70;;;18.70;45.79;100318.34;4896501;28;98462;-47
2021/05/13 08:44:42;;;;;;;7.60;4.70;;;18.70;93.70;;;18.66;47.40;100316.88;4894667;28;97663;-48
2021/05/13 08:47:09;;;;;;;8.23;5.30;;;18.60;95.10;;;18.55;47.40;100316.78;4915416;28;97296;-50
2021/05/13 08:49:37;;;;;;;5.43;4.50;;;18.50;94.90;;;18.57;48.80;100314.84;4893097;28;99844;-55
2021/05/13 08:52:16;;;;;;;1.77;1.50;;;18.40;96.10;;;18.66;48.46;100306.22;4895299;28;98729;-53
2021/05/13 08:55:00;;;;;;;7.37;5.03;;;18.60;95.80;;;18.71;50.34;100298.69;4910026;28;99412;-48
2021/05/13 08:57:26;;;;;;;1.90;1.70;;;18.70;96.60;;;18.75;48.11;100298.44;4895712;28;97199;-51
2021/05/13 08:59:54;;;;;;;1.70;1.60;;;18.80;95.40;;;18.78;47.97;100295.53;4896665;28;98804;-45
2021/05/13 09:02:21;;;;;;;2.07;1.87;;;18.90;95.10;;;18.88;48.06;100291.22;4894880;28;97584;-44
2021/05/13 09:04:52;;;;;;;1.80;1.70;;;19.00;94.80;;;18.90;47.87;100302.63;4895780;28;99087;-47
2021/05/13 09:07:30;;;;;;;2.10;1.77;;;19.10;94.80;;;18.97;47.65;100298.53;4910939;28;101490;-48
2021/05/13 09:10:10;;;;;;;2.07;1.57;;;19.10;94.60;;;19.04;47.42;100307.78;4911178;28;97410;-47
2021/05/13 09:12:49;;;;;;;2.77;2.27;;;19.10;94.60;;;19.06;47.54;100292.47;4894683;28;103142;-50
2021/05/13 09:15:27;;;;;;;5.87;3.20;;;19.10;94.50;;;19.06;47.25;100297.81;4909453;28;98059;-44
2021/05/13 09:17:59;;;;;;;4.93;3.47;;;19.10;94.30;;;18.97;46.03;100291.38;4898808;28;98602;-45
2021/05/13 09:20:32;;;;;;;1.90;1.80;;;19.00;92.40;;;19.02;47.29;100285.66;4901619;28;97957;-49
2021/05/13 09:23:22;;;;;;;4.90;3.03;;;19.00;94.40;;;19.07;44.23;100280.81;4913700;28;97548;-47
2021/05/13 09:26:13;;;;;;;2.13;1.50;;;19.10;92.10;;;19.07;47.52;100278.13;4907261;28;100426;-46
2021/05/13 09:28:41;;;;;;;3.30;2.27;;;19.20;94.20;;;19.05;47.04;100269.38;4887782;28;101148;-50
2021/05/13 09:31:07;;;;;;;5.93;3.73;;;19.10;93.80;;;19.09;45.52;100273.53;4895045;28;96983;-50
2021/05/13 09:33:39;;;;;;;1.50;1.40;;;19.20;93.10;;;19.12;47.07;100270.63;4897743;28;97391;-49
2021/05/13 09:36:23;;;;;;;1.70;1.40;;;19.20;94.00;;;19.19;46.59;100263.84;4905781;28;98996;-50
2021/05/13 09:38:49;;;;;;;4.43;2.23;;;19.30;93.90;;;19.20;43.85;100265.53;4895733;28;100404;-47
2021/05/13 09:41:36;;;;;;;4.23;1.73;;;19.30;91.70;;;19.21;40.20;100269.91;4890703;28;98094;-51
2021/05/13 09:44:29;;;;;;;5.30;2.67;;;19.30;87.30;;;19.21;46.44;100264.56;4895346;28;97600;-54
2021/05/13 09:46:55;;;;;;;5.10;2.53;;;19.20;93.10;;;19.15;41.33;100270.41;4892450;28;104484;-47
2021/05/13 09:49:21;;;;;;;5.70;3.27;;;19.20;87.60;;;19.20;46.35;100268.22;4874552;28;97146;-53
2021/05/13 09:51:47;;;;;;;6.37;3.97;;;19.30;93.10;;;19.19;44.13;100269.19;4895376;28;111344;-48
2021/05/13 09:54:17;;;;;;;4.43;3.27;;;19.30;91.40;;;19.19;44.59;100265.66;4888835;28;98421;-48
2021/05/13 09:56:46;;;;;;;1.80;1.70;;;19.30;91.40;;;19.19;46.40;100266.50;4894576;28;97709;-54
2021/05/13 09:59:20;;;;;;;4.47;2.93;;;19.30;93.20;;;19.21;45.30;100264.56;4875331;28;99455;-51
2021/05/13 10:01:46;;;;;;;7.27;3.07;;;19.30;92.30;;;19.21;43.28;100263.72;4876581;28;97070;-54
2021/05/13 10:04:12;;;;;;;3.77;2.20;;;19.30;90.10;;;19.16;37.71;100257.88;4879318;28;98966;-51
2021/05/13 10:06:38;;;;;;;2.37;1.83;;;19.30;81.40;;;19.19;43.60;100255.81;4875682;28;98333;-48
2021/05/13 10:09:04;;;;;;;5.37;1.97;;;19.20;87.90;;;19.19;44.74;100261.16;4871687;28;98519;-47
2021/05/13 10:11:30;;;;;;;4.43;2.03;;;19.30;90.90;;;19.10;36.93;100243.19;4876439;28;99711;-53
2021/05/13 10:13:56;;;;;;;2.77;1.37;;;19.20;79.40;;;19.13;38.73;100245.59;4878154;28;97601;-44
2021/05/13 10:16:25;;;;;;;3.00;1.47;;;19.10;83.40;;;19.11;43.09;100238.69;4870807;28;101369;-53
2021/05/13 10:19:06;;;;;;;3.07;1.80;;;19.10;87.60;;;19.15;38.79;100235.66;4876393;28;98436;-52
2021/05/13 10:21:35;;;;;;;4.23;1.77;;;19.20;82.20;;;19.17;42.97;100255.09;4888124;28;99978;-48